Terminal Aerodrome Forecast
Issued by NWS Sterling, VA

Current Version | Previous Version | Text Only | Print | Product List | Glossary Off
Versions: 1 2 3 4 5 6 7 8 9 10 11 12 13 14 15 16 17 18 19 20 21 22 23 24

000
FTUS41 KLWX 031006 AAB
TAFMRB
TAF AMD
KMRB 031006Z 0310/0406 00000KT 1/4SM FG VV002
     FM031100 00000KT 2SM BR BKN150
     FM031200 00000KT P6SM BKN100
     FM032200 14005KT 5SM -SHRA OVC040
     FM040400 15004KT P6SM OVC040=

USA.gov is the U.S. government's official web portal to all federal, state and local government web resources and services.